Aviation Digital Data Service (ADDS)

Output produced by METARs form (0142 UTC 23 November 2017)
found at http://www.aviationweather.gov/adds/metars/
 
LCRA 230050Z 30004KT 9999 FEW030 10/02 Q1018 NOSIG
TAF LCRA 230129Z 2303/2321 30005KT 9999 FEW040
       
LCEN 230120Z 30006KT 9999 SCT025 06/02 Q1018 NOSIG RMK RWY11 30008KT
TAF LCEN 222240Z 2300/2324 33015KT 9999 FEW025 
     TEMPO 2300/2303 VRB02KT CAVOK
       
LCLK 230130Z 31008KT CAVOK 09/02 Q1018 NOSIG
TAF LCLK 222330Z 2300/2324 33008KT 9999 FEW025 
     BECMG 2309/2312 22012KT 
     BECMG 2316/2318 32006KT
       
LCPH 230130Z AUTO 03009KT 9999 FEW049 09/04 Q1018
TAF LCPH 222330Z 2300/2324 03007KT 9999 FEW020 
     BECMG 2309/2312 29014KT 
     BECMG 2316/2318 01007KT
       
LCRA 230050Z 30004KT 9999 FEW030 10/02 Q1018 NOSIG
TAF LCRA 230129Z 2303/2321 30005KT 9999 FEW040
       
LCLK 230130Z 31008KT CAVOK 09/02 Q1018 NOSIG
TAF LCLK 222330Z 2300/2324 33008KT 9999 FEW025 
     BECMG 2309/2312 22012KT 
     BECMG 2316/2318 32006KT
       
LCPH 230130Z AUTO 03009KT 9999 FEW049 09/04 Q1018
TAF LCPH 222330Z 2300/2324 03007KT 9999 FEW020 
     BECMG 2309/2312 29014KT 
     BECMG 2316/2318 01007KT